0S9JEFFERSON COUNTY INTL
METARs for airports near 0S9, sorted by distance:
N 18 nm 47' KNUW 161156Z 13026G36KT 10SM FEW030 FEW070 BKN100 13/09 A2999
E 22 nm 606' KPAE 161153Z VRB05KT 10SM OVC039 12/08 A3004
W 24 nm 13' KNOW 161215Z 32006KT 7SM SCT075 BKN100 10/10 A2990
E 26 nm 141' KAWO 161156Z 13010KT 10SM SCT045 BKN055 OVC085 12/09 A3004
W 27 nm 291' KCLM 161228Z 28004KT 2SM BR BKN003 OVC070 10/09 A2990
N 29 nm 112' KFHR 161153Z 14017G28KT 10SM -RA BKN075 OVC090 12/10 A2995
NE 29 nm 145' KBVS 161215Z 11007G12KT 10SM BKN043 BKN070 OVC080 13/10 A2999
S 33 nm 444' KPWT 161214Z 00000KT 10SM OVC029 11/11 A3005
SE 37 nm 21' KBFI 161153Z 14007KT 10SM OVC050 13/08 A3005
N 39 nm 34' KORS 161215Z 16013G21KT 6SM -RA BR SCT037 BKN050 OVC075 13/11 A2991
SE 41 nm 32' KRNT 161153Z 13004KT 10SM OVC055 13/08 A3005
SE 41 nm 432' KSEA 161153Z 14008KT 10SM BKN046 OVC060 13/08 A3005
NW 43 nm 64' CYYJ 161200Z 13010G20KT 7SM RA FEW009 SCT021 OVC062 11/11 A2992
N 45 nm 171' KBLI 161153Z 10SM -RA OVC075 14/09 A2996
S 48 nm 294' KTIW 161153Z 17004KT 10SM OVC046 12/09 A3006
S 51 nm 272' KSHN 161212Z 00000KT 7SM OVC029 12/11 A3002
S 56 nm 322' KTCM 161158Z 18005KT 10SM OVC043 13/09 A3006
S 59 nm 301' KGRF 161158Z 11003KT 10SM BKN043 OVC055 13/08 A3005
S 60 nm 537' KPLU 161215Z 00000KT 10SM BKN043 OVC060 15/06 A3006
S 65 nm 207' KOLM 161154Z 19013KT 10SM SCT036 BKN043 OVC070 13/08 A3005
N 70 nm 14' CYVR 161213Z 10012KT 8SM RA BKN027 OVC055 11/11 A2995
W 70 nm 193' KUIL 161200Z 19014G35KT 2SM -RA BR OVC006 13/13 A2992
NW 73 nm 92' CYCD 160400Z 12008G15KT 080V160 6SM -RA BR SCT008 BKN012 BKN022 OVC045 12/12 A2999
SW 79 nm 17' KHQM 161204Z 17012G21KT 10SM SCT019 OVC044 15/11 A3002
S 82 nm 177' KCLS 161215Z 19008G14KT 10SM BKN040 OVC070 13/10 A3007
TAFs for airports near 0S9, sorted by distance:
N 18 nm 47' KNUW TAF KNUW 1607/1707 15020G30KT 8000 -RA SCT014 BKN030 OVC090 640809 540209 541103 QNH2999INS
  TEMPO 1608/1612 15025G46KT 3200 -RA BR BKN008 OVC015
  FM161400 18020G35KT 9999 VCSH SCT025 OVC060 640708 540109 540903 QNH2995INS
  TEMPO 1616/1622 16015G22KT 3200 -RA BKN015 OVC030
  FM170600 20015G28KT 6000 RA BKN010 OVC035 640609 540109 QNH2993INS T08/1612Z T16/1622Z FS30014
E 22 nm 606' KPAE TAF KPAE 161120Z 1612/1712 15010KT P6SM -RA SCT040 BKN070 OVC090
  FM161600 19012KT P6SM SCT020 BKN050 OVC100
  FM162300 19015G20KT 6SM -RA BKN022 OVC040
  FM170300 16008KT P6SM OVC050
W 27 nm 291' KCLM TAF KCLM 161120Z 1612/1712 VRB04KT 4SM -RA BR FEW029 BKN100 BKN110
  FM161500 25003KT 3SM -RA BR OVC025
  FM170300 28004KT P6SM OVC020
  FM170900 30003KT P6SM OVC010
S 33 nm 444' KPWT TAF KPWT 161120Z 1612/1712 22003KT P6SM OVC035
  FM161600 19018KT P6SM SCT015 BKN040 OVC080
  FM162300 19012KT P6SM -RA BKN015 OVC030
  FM170300 20004KT P6SM OVC050
  FM171000 VRB02KT P6SM OVC015
SE 37 nm 21' KBFI TAF KBFI 161120Z 1612/1712 14006KT P6SM BKN070 OVC110
  FM161600 18008KT P6SM SCT025 BKN050 OVC100
  FM162300 17008KT P6SM BKN070 OVC120
  FM170300 16005KT P6SM VCSH BKN070 OVC080
  FM171000 19003KT P6SM BKN030 OVC050
SE 41 nm 432' KSEA TAF KSEA 161120Z 1612/1718 15005KT P6SM FEW040 FEW060 OVC100
  FM161600 19008KT P6SM SCT020 BKN050 OVC100
  FM162300 19007KT P6SM BKN070 OVC120
  FM170500 20006KT P6SM VCSH BKN050 OVC070
  FM171000 21003KT P6SM BKN025 OVC050
  FM171500 24003KT P6SM OVC025
N 45 nm 171' KBLI TAF KBLI 161120Z 1612/1712 19012KT P6SM OVC070
  FM170300 16015KT P6SM OVC040
  FM170900 16010KT P6SM OVC020
S 56 nm 322' KTCM TAF KTCM 160500Z 1605/1711 20006KT 9999 OVC045 QNH3012INS
  BECMG 1611/1612 17005KT 9999 FEW060 BKN180 QNH3005INS
  BECMG 1617/1618 19010G15KT 9999 BKN100 OVC200 QNH3000INS
  BECMG 1710/1711 19006KT 9999 VCSH SCT015 OVC035 QNH2979INS TX18/1623Z TN08/1613Z
S 59 nm 301' KGRF TAF KGRF 160500Z 1605/1711 14004KT 9999 BKN050 QNH3011INS
  BECMG 1609/1610 20005KT 9999 SCT040 BKN080 QNH3009INS
  BECMG 1617/1618 20010G18KT 9999 SCT030 QNH3001INS
  BECMG 1708/1709 20005KT 9999 BKN030 QNH2977INS TX17/1622Z TN10/1615Z
S 65 nm 207' KOLM TAF KOLM 161120Z 1612/1712 20007KT P6SM BKN045 OVC060
  FM161500 18007KT P6SM OVC050
  FM170000 21005KT P6SM OVC100
  FM170600 22003KT P6SM OVC050
  FM171000 20005KT P6SM OVC020
SW 79 nm 17' KHQM TAF KHQM 161120Z 1612/1712 17013KT P6SM OVC020
  FM161800 18015G25KT P6SM -RA BKN020 OVC040
  FM170200 18010KT P6SM OVC030
  FM170600 15007KT P6SM OVC015

Shortcut to this page: http://wxbay.com.

Data may contain errors.